sensor_id;sensor_type;location;lat;lon;timestamp;P1;durP1;ratioP1;P2;durP2;ratioP2
44558;SDS011;30270;40.238;18.256;2022-09-03T00:02:37;2.38;;;1.23;;
44558;SDS011;30270;40.238;18.256;2022-09-03T00:05:16;4.55;;;1.50;;
44558;SDS011;30270;40.238;18.256;2022-09-03T00:13:07;2.40;;;1.10;;
44558;SDS011;30270;40.238;18.256;2022-09-03T00:15:36;3.75;;;1.30;;
44558;SDS011;30270;40.238;18.256;2022-09-03T00:18:19;2.95;;;1.60;;
44558;SDS011;30270;40.238;18.256;2022-09-03T00:20:50;1.73;;;0.90;;
44558;SDS011;30270;40.238;18.256;2022-09-03T00:23:22;2.28;;;1.25;;
44558;SDS011;30270;40.238;18.256;2022-09-03T00:26:02;4.03;;;2.05;;
44558;SDS011;30270;40.238;18.256;2022-09-03T00:34:06;3.38;;;1.45;;
44558;SDS011;30270;40.238;18.256;2022-09-03T00:36:42;1.45;;;1.05;;
44558;SDS011;30270;40.238;18.256;2022-09-03T00:39:12;3.35;;;1.33;;
44558;SDS011;30270;40.238;18.256;2022-09-03T01:01:42;4.10;;;1.83;;
44558;SDS011;30270;40.238;18.256;2022-09-03T01:10:00;2.92;;;1.15;;
44558;SDS011;30270;40.238;18.256;2022-09-03T01:12:35;3.28;;;2.08;;
44558;SDS011;30270;40.238;18.256;2022-09-03T01:37:50;1.48;;;0.77;;
44558;SDS011;30270;40.238;18.256;2022-09-03T01:46:02;2.47;;;1.02;;
44558;SDS011;30270;40.238;18.256;2022-09-03T01:51:22;4.22;;;0.88;;
44558;SDS011;30270;40.238;18.256;2022-09-03T01:59:50;4.20;;;1.20;;
44558;SDS011;30270;40.238;18.256;2022-09-03T02:02:26;2.08;;;1.05;;
44558;SDS011;30270;40.238;18.256;2022-09-03T02:07:59;1.52;;;1.00;;
44558;SDS011;30270;40.238;18.256;2022-09-03T02:13:22;1.98;;;1.00;;
44558;SDS011;30270;40.238;18.256;2022-09-03T02:16:11;2.50;;;1.30;;
44558;SDS011;30270;40.238;18.256;2022-09-03T02:18:42;1.98;;;1.08;;
44558;SDS011;30270;40.238;18.256;2022-09-03T02:21:13;6.53;;;1.90;;
44558;SDS011;30270;40.238;18.256;2022-09-03T02:23:45;1.83;;;1.08;;
44558;SDS011;30270;40.238;18.256;2022-09-03T02:26:15;1.58;;;1.10;;
44558;SDS011;30270;40.238;18.256;2022-09-03T02:28:47;4.28;;;1.00;;
44558;SDS011;30270;40.238;18.256;2022-09-03T02:31:16;2.08;;;1.10;;
44558;SDS011;30270;40.238;18.256;2022-09-03T02:33:44;2.10;;;1.20;;
44558;SDS011;30270;40.238;18.256;2022-09-03T02:36:14;2.05;;;0.93;;
44558;SDS011;30270;40.238;18.256;2022-09-03T02:38:45;4.50;;;1.67;;
44558;SDS011;30270;40.238;18.256;2022-09-03T02:41:13;2.90;;;1.40;;
44558;SDS011;30270;40.238;18.256;2022-09-03T02:43:48;3.28;;;1.83;;
44558;SDS011;30270;40.238;18.256;2022-09-03T02:46:41;3.33;;;1.30;;
44558;SDS011;30270;40.238;18.256;2022-09-03T02:49:16;3.55;;;1.17;;
44558;SDS011;30270;40.238;18.256;2022-09-03T02:51:43;3.80;;;1.40;;
44558;SDS011;30270;40.238;18.256;2022-09-03T02:54:11;1.85;;;1.10;;
44558;SDS011;30270;40.238;18.256;2022-09-03T02:56:40;3.75;;;1.50;;
44558;SDS011;30270;40.238;18.256;2022-09-03T02:59:08;3.28;;;2.35;;
44558;SDS011;30270;40.238;18.256;2022-09-03T03:01:35;5.28;;;1.40;;
44558;SDS011;30270;40.238;18.256;2022-09-03T03:04:03;2.60;;;1.60;;
44558;SDS011;30270;40.238;18.256;2022-09-03T03:06:31;2.20;;;1.40;;
44558;SDS011;30270;40.238;18.256;2022-09-03T03:08:59;5.45;;;2.47;;
44558;SDS011;30270;40.238;18.256;2022-09-03T03:11:30;3.03;;;1.88;;
44558;SDS011;30270;40.238;18.256;2022-09-03T03:13:57;4.72;;;2.10;;
44558;SDS011;30270;40.238;18.256;2022-09-03T03:16:25;3.20;;;2.00;;
44558;SDS011;30270;40.238;18.256;2022-09-03T03:18:54;3.10;;;2.05;;
44558;SDS011;30270;40.238;18.256;2022-09-03T03:21:22;3.35;;;1.52;;
44558;SDS011;30270;40.238;18.256;2022-09-03T03:23:50;3.85;;;1.77;;
44558;SDS011;30270;40.238;18.256;2022-09-03T03:26:18;2.67;;;1.58;;
44558;SDS011;30270;40.238;18.256;2022-09-03T03:28:49;6.35;;;1.65;;
44558;SDS011;30270;40.238;18.256;2022-09-03T03:31:22;3.35;;;1.60;;
44558;SDS011;30270;40.238;18.256;2022-09-03T03:33:51;3.60;;;1.63;;
44558;SDS011;30270;40.238;18.256;2022-09-03T03:36:20;3.95;;;1.50;;
44558;SDS011;30270;40.238;18.256;2022-09-03T03:38:51;3.22;;;1.73;;
44558;SDS011;30270;40.238;18.256;2022-09-03T03:41:21;4.70;;;1.60;;
44558;SDS011;30270;40.238;18.256;2022-09-03T03:43:53;2.35;;;1.50;;
44558;SDS011;30270;40.238;18.256;2022-09-03T03:46:22;3.53;;;1.58;;
44558;SDS011;30270;40.238;18.256;2022-09-03T03:48:51;4.45;;;1.95;;
44558;SDS011;30270;40.238;18.256;2022-09-03T03:51:18;5.50;;;1.70;;
44558;SDS011;30270;40.238;18.256;2022-09-03T03:53:46;3.45;;;1.63;;
44558;SDS011;30270;40.238;18.256;2022-09-03T03:56:14;5.68;;;2.03;;
44558;SDS011;30270;40.238;18.256;2022-09-03T03:58:42;3.15;;;1.70;;
44558;SDS011;30270;40.238;18.256;2022-09-03T04:01:12;2.42;;;1.50;;
44558;SDS011;30270;40.238;18.256;2022-09-03T04:03:40;3.97;;;1.70;;
44558;SDS011;30270;40.238;18.256;2022-09-03T04:06:09;4.95;;;1.70;;
44558;SDS011;30270;40.238;18.256;2022-09-03T04:08:39;4.35;;;2.30;;
44558;SDS011;30270;40.238;18.256;2022-09-03T04:11:09;4.05;;;1.60;;
44558;SDS011;30270;40.238;18.256;2022-09-03T04:13:39;2.47;;;1.13;;
44558;SDS011;30270;40.238;18.256;2022-09-03T04:16:09;6.68;;;1.88;;
44558;SDS011;30270;40.238;18.256;2022-09-03T04:18:38;1.98;;;1.42;;
44558;SDS011;30270;40.238;18.256;2022-09-03T04:21:08;2.70;;;1.65;;
44558;SDS011;30270;40.238;18.256;2022-09-03T04:23:41;3.70;;;1.60;;
44558;SDS011;30270;40.238;18.256;2022-09-03T04:26:11;2.80;;;1.40;;
44558;SDS011;30270;40.238;18.256;2022-09-03T04:28:48;5.38;;;1.90;;
44558;SDS011;30270;40.238;18.256;2022-09-03T04:31:16;2.83;;;1.50;;
44558;SDS011;30270;40.238;18.256;2022-09-03T04:33:46;4.13;;;1.70;;
44558;SDS011;30270;40.238;18.256;2022-09-03T04:36:15;10.88;;;2.47;;
44558;SDS011;30270;40.238;18.256;2022-09-03T04:38:49;2.40;;;1.40;;
44558;SDS011;30270;40.238;18.256;2022-09-03T04:41:21;3.75;;;2.10;;
44558;SDS011;30270;40.238;18.256;2022-09-03T04:43:51;2.80;;;1.98;;
44558;SDS011;30270;40.238;18.256;2022-09-03T04:46:20;7.65;;;1.80;;
44558;SDS011;30270;40.238;18.256;2022-09-03T04:48:52;2.97;;;1.98;;
44558;SDS011;30270;40.238;18.256;2022-09-03T04:51:22;2.70;;;1.50;;
44558;SDS011;30270;40.238;18.256;2022-09-03T04:53:53;2.92;;;1.48;;
44558;SDS011;30270;40.238;18.256;2022-09-03T04:56:24;3.85;;;1.77;;
44558;SDS011;30270;40.238;18.256;2022-09-03T04:58:54;3.67;;;1.52;;
44558;SDS011;30270;40.238;18.256;2022-09-03T05:01:24;4.70;;;2.30;;
44558;SDS011;30270;40.238;18.256;2022-09-03T05:03:56;5.05;;;1.60;;
44558;SDS011;30270;40.238;18.256;2022-09-03T05:06:25;2.85;;;1.50;;
44558;SDS011;30270;40.238;18.256;2022-09-03T05:08:54;2.53;;;1.42;;
44558;SDS011;30270;40.238;18.256;2022-09-03T05:11:22;7.00;;;2.30;;
44558;SDS011;30270;40.238;18.256;2022-09-03T05:13:51;3.08;;;1.55;;
44558;SDS011;30270;40.238;18.256;2022-09-03T05:16:21;5.78;;;1.67;;
44558;SDS011;30270;40.238;18.256;2022-09-03T05:18:53;2.72;;;1.40;;
44558;SDS011;30270;40.238;18.256;2022-09-03T05:21:22;6.13;;;2.25;;
44558;SDS011;30270;40.238;18.256;2022-09-03T05:23:50;2.80;;;1.30;;
44558;SDS011;30270;40.238;18.256;2022-09-03T05:26:19;2.92;;;1.80;;
44558;SDS011;30270;40.238;18.256;2022-09-03T05:28:53;3.22;;;1.70;;
44558;SDS011;30270;40.238;18.256;2022-09-03T05:31:22;4.30;;;1.63;;
44558;SDS011;30270;40.238;18.256;2022-09-03T05:33:54;3.17;;;2.03;;
44558;SDS011;30270;40.238;18.256;2022-09-03T05:36:27;2.33;;;1.20;;
44558;SDS011;30270;40.238;18.256;2022-09-03T05:38:57;3.10;;;1.83;;
44558;SDS011;30270;40.238;18.256;2022-09-03T05:41:25;3.67;;;1.55;;
44558;SDS011;30270;40.238;18.256;2022-09-03T05:43:54;4.50;;;1.60;;
44558;SDS011;30270;40.238;18.256;2022-09-03T05:46:26;2.90;;;1.60;;
44558;SDS011;30270;40.238;18.256;2022-09-03T05:48:58;5.25;;;1.95;;
44558;SDS011;30270;40.238;18.256;2022-09-03T05:51:28;3.28;;;1.48;;
44558;SDS011;30270;40.238;18.256;2022-09-03T05:53:57;4.78;;;2.05;;
44558;SDS011;30270;40.238;18.256;2022-09-03T05:56:25;3.95;;;1.83;;
44558;SDS011;30270;40.238;18.256;2022-09-03T05:58:58;2.70;;;1.67;;
44558;SDS011;30270;40.238;18.256;2022-09-03T06:01:31;3.55;;;1.50;;
44558;SDS011;30270;40.238;18.256;2022-09-03T06:04:06;3.75;;;1.85;;
44558;SDS011;30270;40.238;18.256;2022-09-03T06:06:36;4.38;;;1.65;;
44558;SDS011;30270;40.238;18.256;2022-09-03T06:09:09;2.28;;;1.80;;
44558;SDS011;30270;40.238;18.256;2022-09-03T06:11:40;3.90;;;1.70;;
44558;SDS011;30270;40.238;18.256;2022-09-03T06:14:09;4.50;;;2.40;;
44558;SDS011;30270;40.238;18.256;2022-09-03T06:16:42;2.13;;;1.50;;
44558;SDS011;30270;40.238;18.256;2022-09-03T06:19:12;3.58;;;1.58;;
44558;SDS011;30270;40.238;18.256;2022-09-03T06:21:40;9.45;;;2.45;;
44558;SDS011;30270;40.238;18.256;2022-09-03T06:24:12;3.65;;;1.83;;
44558;SDS011;30270;40.238;18.256;2022-09-03T06:26:41;4.43;;;2.00;;
44558;SDS011;30270;40.238;18.256;2022-09-03T06:29:09;5.32;;;2.65;;
44558;SDS011;30270;40.238;18.256;2022-09-03T06:31:37;3.97;;;1.70;;
44558;SDS011;30270;40.238;18.256;2022-09-03T06:34:05;3.00;;;1.88;;
44558;SDS011;30270;40.238;18.256;2022-09-03T06:36:33;3.67;;;2.13;;
44558;SDS011;30270;40.238;18.256;2022-09-03T06:39:01;5.00;;;2.00;;
44558;SDS011;30270;40.238;18.256;2022-09-03T06:41:29;5.97;;;1.73;;
44558;SDS011;30270;40.238;18.256;2022-09-03T06:44:02;4.85;;;1.75;;
44558;SDS011;30270;40.238;18.256;2022-09-03T06:46:34;3.38;;;1.65;;
44558;SDS011;30270;40.238;18.256;2022-09-03T06:49:04;5.32;;;1.90;;
44558;SDS011;30270;40.238;18.256;2022-09-03T06:51:32;4.05;;;2.78;;
44558;SDS011;30270;40.238;18.256;2022-09-03T06:54:01;4.93;;;2.00;;
44558;SDS011;30270;40.238;18.256;2022-09-03T06:56:32;2.20;;;1.40;;
44558;SDS011;30270;40.238;18.256;2022-09-03T06:59:05;3.00;;;1.42;;
44558;SDS011;30270;40.238;18.256;2022-09-03T07:01:37;7.70;;;1.60;;
44558;SDS011;30270;40.238;18.256;2022-09-03T07:04:08;3.78;;;2.05;;
44558;SDS011;30270;40.238;18.256;2022-09-03T07:06:37;30.27;;;6.68;;
44558;SDS011;30270;40.238;18.256;2022-09-03T07:09:07;12.07;;;3.92;;
44558;SDS011;30270;40.238;18.256;2022-09-03T07:11:36;6.00;;;2.63;;
44558;SDS011;30270;40.238;18.256;2022-09-03T07:14:12;4.70;;;1.88;;
44558;SDS011;30270;40.238;18.256;2022-09-03T07:16:40;3.05;;;1.60;;
44558;SDS011;30270;40.238;18.256;2022-09-03T07:19:09;4.28;;;1.58;;
44558;SDS011;30270;40.238;18.256;2022-09-03T07:21:39;3.17;;;1.65;;
44558;SDS011;30270;40.238;18.256;2022-09-03T07:24:10;3.83;;;1.77;;
44558;SDS011;30270;40.238;18.256;2022-09-03T07:26:39;4.30;;;1.73;;
44558;SDS011;30270;40.238;18.256;2022-09-03T07:29:10;3.95;;;1.90;;
44558;SDS011;30270;40.238;18.256;2022-09-03T07:31:39;2.85;;;1.92;;
44558;SDS011;30270;40.238;18.256;2022-09-03T07:34:09;2.50;;;1.55;;
44558;SDS011;30270;40.238;18.256;2022-09-03T07:39:12;4.05;;;1.50;;
44558;SDS011;30270;40.238;18.256;2022-09-03T07:41:40;5.15;;;1.90;;
44558;SDS011;30270;40.238;18.256;2022-09-03T07:44:12;4.05;;;1.83;;
44558;SDS011;30270;40.238;18.256;2022-09-03T07:46:42;6.13;;;1.83;;
44558;SDS011;30270;40.238;18.256;2022-09-03T07:49:11;8.07;;;2.55;;
44558;SDS011;30270;40.238;18.256;2022-09-03T07:51:39;3.00;;;1.50;;
44558;SDS011;30270;40.238;18.256;2022-09-03T07:54:08;2.80;;;2.05;;
44558;SDS011;30270;40.238;18.256;2022-09-03T07:56:38;3.22;;;1.63;;
44558;SDS011;30270;40.238;18.256;2022-09-03T07:59:06;3.60;;;1.33;;
44558;SDS011;30270;40.238;18.256;2022-09-03T08:01:35;5.72;;;2.60;;
44558;SDS011;30270;40.238;18.256;2022-09-03T08:04:03;3.45;;;1.58;;
44558;SDS011;30270;40.238;18.256;2022-09-03T08:06:32;2.70;;;1.50;;
44558;SDS011;30270;40.238;18.256;2022-09-03T08:09:01;4.25;;;1.67;;
44558;SDS011;30270;40.238;18.256;2022-09-03T08:11:32;4.03;;;1.38;;
44558;SDS011;30270;40.238;18.256;2022-09-03T08:14:04;2.47;;;2.13;;
44558;SDS011;30270;40.238;18.256;2022-09-03T08:16:34;5.47;;;1.65;;
44558;SDS011;30270;40.238;18.256;2022-09-03T08:19:06;4.60;;;1.83;;
44558;SDS011;30270;40.238;18.256;2022-09-03T08:21:34;3.05;;;1.50;;
44558;SDS011;30270;40.238;18.256;2022-09-03T08:24:02;5.55;;;1.33;;
44558;SDS011;30270;40.238;18.256;2022-09-03T08:26:31;3.08;;;1.83;;
44558;SDS011;30270;40.238;18.256;2022-09-03T08:29:01;8.55;;;2.30;;
44558;SDS011;30270;40.238;18.256;2022-09-03T08:31:29;4.53;;;1.83;;
44558;SDS011;30270;40.238;18.256;2022-09-03T08:33:58;3.50;;;1.70;;
44558;SDS011;30270;40.238;18.256;2022-09-03T08:36:33;2.17;;;1.50;;
44558;SDS011;30270;40.238;18.256;2022-09-03T08:39:04;4.43;;;1.92;;
44558;SDS011;30270;40.238;18.256;2022-09-03T08:49:55;4.28;;;1.65;;
44558;SDS011;30270;40.238;18.256;2022-09-03T09:00:35;3.45;;;1.40;;
44558;SDS011;30270;40.238;18.256;2022-09-03T09:06:07;2.25;;;1.45;;
44558;SDS011;30270;40.238;18.256;2022-09-03T09:23:13;2.78;;;1.45;;
44558;SDS011;30270;40.238;18.256;2022-09-03T09:25:54;2.03;;;1.38;;
44558;SDS011;30270;40.238;18.256;2022-09-03T09:28:29;3.00;;;1.45;;
44558;SDS011;30270;40.238;18.256;2022-09-03T09:31:01;4.75;;;1.73;;
44558;SDS011;30270;40.238;18.256;2022-09-03T09:33:30;2.35;;;1.70;;
44558;SDS011;30270;40.238;18.256;2022-09-03T09:36:00;3.53;;;1.80;;
44558;SDS011;30270;40.238;18.256;2022-09-03T09:38:32;1.70;;;1.10;;
44558;SDS011;30270;40.238;18.256;2022-09-03T09:41:12;2.80;;;1.20;;
44558;SDS011;30270;40.238;18.256;2022-09-03T09:43:42;3.72;;;1.52;;
44558;SDS011;30270;40.238;18.256;2022-09-03T09:46:12;1.52;;;1.15;;
44558;SDS011;30270;40.238;18.256;2022-09-03T09:48:49;5.50;;;1.38;;
44558;SDS011;30270;40.238;18.256;2022-09-03T09:51:26;4.30;;;1.60;;
44558;SDS011;30270;40.238;18.256;2022-09-03T09:54:03;2.28;;;1.10;;
44558;SDS011;30270;40.238;18.256;2022-09-03T09:56:37;2.92;;;1.30;;
44558;SDS011;30270;40.238;18.256;2022-09-03T09:59:06;1.73;;;0.95;;
44558;SDS011;30270;40.238;18.256;2022-09-03T10:01:41;3.33;;;1.55;;
44558;SDS011;30270;40.238;18.256;2022-09-03T10:04:21;3.60;;;1.52;;
44558;SDS011;30270;40.238;18.256;2022-09-03T10:07:21;2.88;;;1.30;;
44558;SDS011;30270;40.238;18.256;2022-09-03T10:10:38;2.13;;;1.37;;
44558;SDS011;30270;40.238;18.256;2022-09-03T10:12:48;2.38;;;1.33;;
44558;SDS011;30270;40.238;18.256;2022-09-03T10:15:31;3.30;;;1.55;;
44558;SDS011;30270;40.238;18.256;2022-09-03T10:18:26;3.15;;;1.50;;
44558;SDS011;30270;40.238;18.256;2022-09-03T10:21:11;1.33;;;0.90;;
44558;SDS011;30270;40.238;18.256;2022-09-03T10:26:54;3.78;;;1.63;;
44558;SDS011;30270;40.238;18.256;2022-09-03T10:29:22;1.65;;;1.10;;
44558;SDS011;30270;40.238;18.256;2022-09-03T10:35:25;1.77;;;0.90;;
44558;SDS011;30270;40.238;18.256;2022-09-03T10:37:54;4.00;;;1.25;;
44558;SDS011;30270;40.238;18.256;2022-09-03T10:46:26;4.63;;;1.50;;
44558;SDS011;30270;40.238;18.256;2022-09-03T10:49:09;4.55;;;1.00;;
44558;SDS011;30270;40.238;18.256;2022-09-03T10:57:18;2.38;;;1.13;;
44558;SDS011;30270;40.238;18.256;2022-09-03T11:00:12;1.60;;;1.00;;
44558;SDS011;30270;40.238;18.256;2022-09-03T11:13:41;4.22;;;1.42;;
44558;SDS011;30270;40.238;18.256;2022-09-03T11:16:21;3.85;;;1.00;;
44558;SDS011;30270;40.238;18.256;2022-09-03T11:18:54;2.17;;;1.27;;
44558;SDS011;30270;40.238;18.256;2022-09-03T11:21:26;4.28;;;1.40;;
44558;SDS011;30270;40.238;18.256;2022-09-03T11:26:44;2.50;;;1.70;;
44558;SDS011;30270;40.238;18.256;2022-09-03T11:29:19;2.00;;;1.10;;
44558;SDS011;30270;40.238;18.256;2022-09-03T11:32:03;4.30;;;1.60;;
44558;SDS011;30270;40.238;18.256;2022-09-03T11:34:44;1.55;;;1.20;;
44558;SDS011;30270;40.238;18.256;2022-09-03T11:37:19;2.65;;;1.70;;
44558;SDS011;30270;40.238;18.256;2022-09-03T11:42:40;2.78;;;1.50;;
44558;SDS011;30270;40.238;18.256;2022-09-03T11:47:49;2.15;;;1.45;;
44558;SDS011;30270;40.238;18.256;2022-09-03T11:50:22;2.28;;;1.60;;
44558;SDS011;30270;40.238;18.256;2022-09-03T11:52:52;4.07;;;1.48;;
44558;SDS011;30270;40.238;18.256;2022-09-03T11:55:33;2.90;;;1.52;;
44558;SDS011;30270;40.238;18.256;2022-09-03T11:58:32;4.22;;;1.90;;
44558;SDS011;30270;40.238;18.256;2022-09-03T12:01:05;3.92;;;1.73;;
44558;SDS011;30270;40.238;18.256;2022-09-03T12:08:46;2.47;;;1.42;;
44558;SDS011;30270;40.238;18.256;2022-09-03T12:12:08;2.72;;;1.40;;
44558;SDS011;30270;40.238;18.256;2022-09-03T12:19:55;2.60;;;1.20;;
44558;SDS011;30270;40.238;18.256;2022-09-03T12:22:26;1.83;;;1.30;;
44558;SDS011;30270;40.238;18.256;2022-09-03T12:25:07;2.60;;;1.13;;
44558;SDS011;30270;40.238;18.256;2022-09-03T12:27:38;2.60;;;1.83;;
44558;SDS011;30270;40.238;18.256;2022-09-03T12:30:14;2.92;;;1.35;;
44558;SDS011;30270;40.238;18.256;2022-09-03T12:32:43;4.13;;;1.40;;
44558;SDS011;30270;40.238;18.256;2022-09-03T12:38:01;2.33;;;1.30;;
44558;SDS011;30270;40.238;18.256;2022-09-03T12:40:30;1.98;;;1.30;;
44558;SDS011;30270;40.238;18.256;2022-09-03T12:43:14;2.58;;;1.60;;
44558;SDS011;30270;40.238;18.256;2022-09-03T12:46:03;2.33;;;1.33;;
44558;SDS011;30270;40.238;18.256;2022-09-03T12:48:36;2.85;;;1.60;;
44558;SDS011;30270;40.238;18.256;2022-09-03T12:51:05;1.92;;;1.17;;
44558;SDS011;30270;40.238;18.256;2022-09-03T12:53:52;2.20;;;1.30;;
44558;SDS011;30270;40.238;18.256;2022-09-03T12:56:20;3.13;;;1.58;;
44558;SDS011;30270;40.238;18.256;2022-09-03T12:58:50;2.00;;;1.15;;
44558;SDS011;30270;40.238;18.256;2022-09-03T13:01:25;2.10;;;1.15;;
44558;SDS011;30270;40.238;18.256;2022-09-03T13:06:47;1.45;;;0.98;;
44558;SDS011;30270;40.238;18.256;2022-09-03T13:09:23;3.03;;;1.23;;
44558;SDS011;30270;40.238;18.256;2022-09-03T13:11:53;5.00;;;1.30;;
44558;SDS011;30270;40.238;18.256;2022-09-03T13:14:21;2.95;;;1.30;;
44558;SDS011;30270;40.238;18.256;2022-09-03T13:22:54;3.28;;;1.52;;
44558;SDS011;30270;40.238;18.256;2022-09-03T13:28:07;1.63;;;1.08;;
44558;SDS011;30270;40.238;18.256;2022-09-03T13:31:21;8.60;;;1.63;;
44558;SDS011;30270;40.238;18.256;2022-09-03T13:33:44;3.10;;;1.70;;
44558;SDS011;30270;40.238;18.256;2022-09-03T13:38:59;1.98;;;1.33;;
44558;SDS011;30270;40.238;18.256;2022-09-03T13:41:38;1.58;;;1.00;;
44558;SDS011;30270;40.238;18.256;2022-09-03T13:46:56;1.65;;;1.10;;
44558;SDS011;30270;40.238;18.256;2022-09-03T13:53:01;2.22;;;1.30;;
44558;SDS011;30270;40.238;18.256;2022-09-03T13:55:35;2.00;;;1.48;;
44558;SDS011;30270;40.238;18.256;2022-09-03T14:01:22;3.22;;;1.65;;
44558;SDS011;30270;40.238;18.256;2022-09-03T14:04:01;1.58;;;1.30;;
44558;SDS011;30270;40.238;18.256;2022-09-03T14:06:39;2.10;;;1.33;;
44558;SDS011;30270;40.238;18.256;2022-09-03T14:12:02;2.60;;;1.50;;
44558;SDS011;30270;40.238;18.256;2022-09-03T14:22:47;4.03;;;1.40;;
44558;SDS011;30270;40.238;18.256;2022-09-03T14:27:53;3.63;;;1.70;;
44558;SDS011;30270;40.238;18.256;2022-09-03T14:30:53;2.28;;;1.33;;
44558;SDS011;30270;40.238;18.256;2022-09-03T14:33:38;1.67;;;0.93;;
44558;SDS011;30270;40.238;18.256;2022-09-03T14:36:31;2.58;;;1.48;;
44558;SDS011;30270;40.238;18.256;2022-09-03T14:51:04;2.50;;;1.30;;
44558;SDS011;30270;40.238;18.256;2022-09-03T15:05:05;1.65;;;1.02;;
44558;SDS011;30270;40.238;18.256;2022-09-03T15:10:14;3.45;;;1.25;;
44558;SDS011;30270;40.238;18.256;2022-09-03T15:13:15;5.30;;;1.38;;
44558;SDS011;30270;40.238;18.256;2022-09-03T15:32:05;3.80;;;1.40;;
44558;SDS011;30270;40.238;18.256;2022-09-03T15:43:09;3.78;;;1.30;;
44558;SDS011;30270;40.238;18.256;2022-09-03T16:01:49;2.72;;;1.15;;
44558;SDS011;30270;40.238;18.256;2022-09-03T16:12:58;2.30;;;0.93;;
44558;SDS011;30270;40.238;18.256;2022-09-03T16:15:32;3.30;;;1.92;;
44558;SDS011;30270;40.238;18.256;2022-09-03T16:18:09;6.55;;;3.45;;
44558;SDS011;30270;40.238;18.256;2022-09-03T16:20:45;4.25;;;1.92;;
44558;SDS011;30270;40.238;18.256;2022-09-03T16:23:30;3.60;;;2.05;;
44558;SDS011;30270;40.238;18.256;2022-09-03T16:26:33;2.92;;;1.50;;
44558;SDS011;30270;40.238;18.256;2022-09-03T16:29:14;2.72;;;1.33;;
44558;SDS011;30270;40.238;18.256;2022-09-03T16:48:23;1.33;;;1.02;;
44558;SDS011;30270;40.238;18.256;2022-09-03T16:51:52;2.67;;;1.42;;
44558;SDS011;30270;40.238;18.256;2022-09-03T16:57:06;2.80;;;1.20;;
44558;SDS011;30270;40.238;18.256;2022-09-03T17:10:53;2.40;;;1.20;;
44558;SDS011;30270;40.238;18.256;2022-09-03T17:16:27;2.78;;;1.15;;
44558;SDS011;30270;40.238;18.256;2022-09-03T17:24:54;2.97;;;1.35;;
44558;SDS011;30270;40.238;18.256;2022-09-03T17:33:06;2.60;;;1.48;;
44558;SDS011;30270;40.238;18.256;2022-09-03T17:38:23;3.00;;;1.20;;
44558;SDS011;30270;40.238;18.256;2022-09-03T17:49:47;5.05;;;1.20;;
44558;SDS011;30270;40.238;18.256;2022-09-03T17:52:23;3.50;;;1.38;;
44558;SDS011;30270;40.238;18.256;2022-09-03T17:55:02;1.92;;;1.33;;
44558;SDS011;30270;40.238;18.256;2022-09-03T17:57:52;2.65;;;1.30;;
44558;SDS011;30270;40.238;18.256;2022-09-03T18:00:37;3.00;;;1.50;;
44558;SDS011;30270;40.238;18.256;2022-09-03T18:03:21;2.97;;;1.50;;
44558;SDS011;30270;40.238;18.256;2022-09-03T18:05:57;2.95;;;1.80;;
44558;SDS011;30270;40.238;18.256;2022-09-03T18:11:21;2.83;;;1.60;;
44558;SDS011;30270;40.238;18.256;2022-09-03T18:17:08;2.65;;;1.58;;
44558;SDS011;30270;40.238;18.256;2022-09-03T18:19:58;3.92;;;2.30;;
44558;SDS011;30270;40.238;18.256;2022-09-03T18:23:18;4.05;;;1.80;;
44558;SDS011;30270;40.238;18.256;2022-09-03T18:26:11;5.88;;;3.25;;
44558;SDS011;30270;40.238;18.256;2022-09-03T18:31:59;7.97;;;5.35;;
44558;SDS011;30270;40.238;18.256;2022-09-03T18:34:45;6.78;;;4.20;;
44558;SDS011;30270;40.238;18.256;2022-09-03T18:37:31;6.82;;;3.75;;
44558;SDS011;30270;40.238;18.256;2022-09-03T18:43:27;4.28;;;1.80;;
44558;SDS011;30270;40.238;18.256;2022-09-03T18:46:32;4.38;;;2.40;;
44558;SDS011;30270;40.238;18.256;2022-09-03T18:53:11;4.03;;;1.95;;
44558;SDS011;30270;40.238;18.256;2022-09-03T19:02:32;3.70;;;1.75;;
44558;SDS011;30270;40.238;18.256;2022-09-03T19:20:28;3.70;;;2.30;;
44558;SDS011;30270;40.238;18.256;2022-09-03T19:23:16;5.10;;;2.10;;
44558;SDS011;30270;40.238;18.256;2022-09-03T19:26:36;3.25;;;2.25;;
44558;SDS011;30270;40.238;18.256;2022-09-03T19:29:28;5.32;;;2.17;;
44558;SDS011;30270;40.238;18.256;2022-09-03T19:32:42;4.07;;;1.95;;
44558;SDS011;30270;40.238;18.256;2022-09-03T19:41:44;3.72;;;2.53;;
44558;SDS011;30270;40.238;18.256;2022-09-03T19:44:59;6.15;;;2.97;;
44558;SDS011;30270;40.238;18.256;2022-09-03T19:51:10;5.47;;;3.05;;
44558;SDS011;30270;40.238;18.256;2022-09-03T19:54:30;4.57;;;3.20;;
44558;SDS011;30270;40.238;18.256;2022-09-03T19:57:17;5.47;;;2.67;;
44558;SDS011;30270;40.238;18.256;2022-09-03T20:00:05;6.07;;;2.65;;
44558;SDS011;30270;40.238;18.256;2022-09-03T20:02:51;3.65;;;2.00;;
44558;SDS011;30270;40.238;18.256;2022-09-03T20:05:39;4.38;;;2.20;;
44558;SDS011;30270;40.238;18.256;2022-09-03T20:08:26;3.15;;;2.15;;
44558;SDS011;30270;40.238;18.256;2022-09-03T20:11:18;4.10;;;2.03;;
44558;SDS011;30270;40.238;18.256;2022-09-03T20:13:47;3.28;;;1.92;;
44558;SDS011;30270;40.238;18.256;2022-09-03T20:16:35;4.43;;;2.20;;
44558;SDS011;30270;40.238;18.256;2022-09-03T20:22:09;5.72;;;2.10;;
44558;SDS011;30270;40.238;18.256;2022-09-03T20:27:28;5.03;;;2.47;;
44558;SDS011;30270;40.238;18.256;2022-09-03T20:30:06;3.05;;;1.95;;
44558;SDS011;30270;40.238;18.256;2022-09-03T20:35:36;4.00;;;2.80;;
44558;SDS011;30270;40.238;18.256;2022-09-03T20:43:50;3.90;;;2.50;;
44558;SDS011;30270;40.238;18.256;2022-09-03T20:47:03;4.57;;;2.25;;
44558;SDS011;30270;40.238;18.256;2022-09-03T20:55:22;4.18;;;2.75;;
44558;SDS011;30270;40.238;18.256;2022-09-03T21:09:48;6.20;;;2.83;;
44558;SDS011;30270;40.238;18.256;2022-09-03T21:12:35;4.47;;;2.55;;
44558;SDS011;30270;40.238;18.256;2022-09-03T21:15:17;3.90;;;2.63;;
44558;SDS011;30270;40.238;18.256;2022-09-03T21:18:23;3.83;;;2.38;;
44558;SDS011;30270;40.238;18.256;2022-09-03T21:24:07;3.30;;;2.30;;
44558;SDS011;30270;40.238;18.256;2022-09-03T21:26:47;4.25;;;2.47;;
44558;SDS011;30270;40.238;18.256;2022-09-03T21:29:26;6.88;;;3.40;;
44558;SDS011;30270;40.238;18.256;2022-09-03T21:32:03;4.85;;;3.25;;
44558;SDS011;30270;40.238;18.256;2022-09-03T21:34:45;4.63;;;2.80;;
44558;SDS011;30270;40.238;18.256;2022-09-03T21:37:15;4.95;;;2.70;;
44558;SDS011;30270;40.238;18.256;2022-09-03T21:39:50;4.75;;;2.60;;
44558;SDS011;30270;40.238;18.256;2022-09-03T21:47:59;4.53;;;2.63;;
44558;SDS011;30270;40.238;18.256;2022-09-03T21:50:46;4.25;;;2.80;;
44558;SDS011;30270;40.238;18.256;2022-09-03T21:56:17;4.78;;;3.03;;
44558;SDS011;30270;40.238;18.256;2022-09-03T22:01:25;9.50;;;3.38;;
44558;SDS011;30270;40.238;18.256;2022-09-03T22:03:56;6.60;;;3.03;;
44558;SDS011;30270;40.238;18.256;2022-09-03T22:06:30;5.18;;;3.30;;
44558;SDS011;30270;40.238;18.256;2022-09-03T22:09:11;5.20;;;3.05;;
44558;SDS011;30270;40.238;18.256;2022-09-03T22:14:35;3.47;;;2.50;;
44558;SDS011;30270;40.238;18.256;2022-09-03T22:20:13;5.53;;;2.70;;
44558;SDS011;30270;40.238;18.256;2022-09-03T22:22:50;3.28;;;2.55;;
44558;SDS011;30270;40.238;18.256;2022-09-03T22:25:40;5.07;;;2.47;;
44558;SDS011;30270;40.238;18.256;2022-09-03T22:31:18;3.65;;;2.17;;
44558;SDS011;30270;40.238;18.256;2022-09-03T22:34:04;4.97;;;2.22;;
44558;SDS011;30270;40.238;18.256;2022-09-03T22:36:49;3.88;;;2.47;;
44558;SDS011;30270;40.238;18.256;2022-09-03T22:39:36;4.93;;;3.25;;
44558;SDS011;30270;40.238;18.256;2022-09-03T22:50:37;4.45;;;2.40;;